Time;durP1;ratioP1;P1;durP2;ratioP2;P2;SDS_P1;SDS_P2;PMS_P1;PMS_P2;Temp;Humidity;BMP_temperature;BMP_pressure;BME280_temperature;BME280_humidity;BME280_pressure;Samples;Min_cycle;Max_cycle;Signal;HPM_P1;HPM_P2
2021/05/14 00:00:31;;;;;;;78.18;47.83;;;10.20;99.90;;;;;;4966955;28;20046;-73
2021/05/14 00:03:09;;;;;;;75.95;50.08;;;10.20;99.90;;;;;;4952332;28;20058;-74
2021/05/14 00:05:48;;;;;;;81.00;52.00;;;10.10;99.90;;;;;;4980258;28;20049;-74
2021/05/14 00:08:27;;;;;;;80.78;51.97;;;10.10;99.90;;;;;;4954867;28;20070;-74
2021/05/14 00:10:57;;;;;;;95.85;54.03;;;10.10;99.90;;;;;;4951851;28;20069;-73
2021/05/14 00:13:26;;;;;;;88.50;53.38;;;10.10;99.90;;;;;;4968308;28;20050;-74
2021/05/14 00:16:01;;;;;;;83.57;54.80;;;10.10;99.90;;;;;;4942895;28;20423;-74
2021/05/14 00:18:31;;;;;;;80.93;52.63;;;10.00;99.90;;;;;;4953518;28;20296;-74
2021/05/14 00:21:01;;;;;;;90.32;55.45;;;10.00;99.90;;;;;;4953689;28;20116;-74
2021/05/14 00:23:34;;;;;;;91.95;56.38;;;10.10;99.90;;;;;;4952326;28;20435;-74
2021/05/14 00:26:08;;;;;;;91.97;56.25;;;10.00;99.90;;;;;;4952466;28;20140;-73
2021/05/14 00:28:37;;;;;;;90.18;56.30;;;10.00;99.90;;;;;;4953309;28;20081;-73
2021/05/14 00:31:07;;;;;;;92.38;56.90;;;10.00;99.90;;;;;;4975080;28;20478;-73
2021/05/14 00:33:37;;;;;;;91.70;57.95;;;10.00;99.90;;;;;;4961704;28;20042;-73
2021/05/14 00:36:09;;;;;;;90.35;57.80;;;9.90;99.90;;;;;;4983626;28;20560;-74
2021/05/14 00:39:02;;;;;;;101.32;58.75;;;9.90;99.90;;;;;;4955549;28;20072;-74
2021/05/14 00:41:32;;;;;;;97.25;61.70;;;9.90;99.90;;;;;;4966343;28;20047;-74
2021/05/14 00:44:24;;;;;;;101.07;61.20;;;10.00;99.90;;;;;;4968642;28;20074;-73
2021/05/14 00:47:15;;;;;;;98.45;61.92;;;10.00;99.90;;;;;;4974534;28;20046;-73
2021/05/14 00:49:51;;;;;;;108.55;63.67;;;9.90;99.90;;;;;;5000724;28;20127;-74
2021/05/14 00:52:21;;;;;;;101.63;60.45;;;9.90;99.90;;;;;;4967580;28;20589;-74
2021/05/14 00:54:56;;;;;;;97.68;59.40;;;9.90;99.90;;;;;;4968970;28;20042;-74
2021/05/14 00:57:39;;;;;;;99.70;61.33;;;10.00;99.90;;;;;;4966618;28;20096;-74
2021/05/14 01:00:09;;;;;;;97.43;62.70;;;10.10;99.90;;;;;;4968439;28;20046;-73
2021/05/14 01:02:43;;;;;;;96.07;60.53;;;10.10;99.90;;;;;;4960451;28;20057;-74
2021/05/14 01:05:12;;;;;;;96.78;60.42;;;10.20;99.90;;;;;;4962665;28;20136;-73
2021/05/14 01:07:40;;;;;;;96.22;61.83;;;10.10;99.90;;;;;;4966113;28;20069;-74
2021/05/14 01:10:29;;;;;;;97.38;59.10;;;10.10;99.90;;;;;;4953677;28;20105;-74
2021/05/14 01:12:59;;;;;;;100.03;60.00;;;10.10;99.90;;;;;;4951930;28;20065;-73
2021/05/14 01:15:31;;;;;;;96.82;60.80;;;10.20;99.90;;;;;;4970680;28;20377;-74
2021/05/14 01:18:11;;;;;;;95.40;61.13;;;10.20;99.90;;;;;;4966482;28;20046;-74
2021/05/14 01:20:40;;;;;;;101.18;63.30;;;10.20;99.90;;;;;;4964951;28;20515;-74
2021/05/14 01:23:08;;;;;;;97.53;61.47;;;10.20;99.90;;;;;;4953459;28;20062;-74
2021/05/14 01:25:41;;;;;;;95.68;60.58;;;10.20;99.90;;;;;;4975043;28;20046;-74
2021/05/14 01:28:10;;;;;;;99.45;60.22;;;10.30;99.90;;;;;;4991363;28;20047;-72
2021/05/14 01:30:43;;;;;;;100.43;61.35;;;10.30;99.90;;;;;;4981063;28;20038;-74
2021/05/14 01:33:15;;;;;;;95.80;61.55;;;10.40;99.90;;;;;;4967716;28;20039;-74
2021/05/14 01:35:46;;;;;;;97.85;61.33;;;10.30;99.90;;;;;;4965980;28;20038;-73
2021/05/14 01:38:15;;;;;;;97.78;63.15;;;10.40;99.90;;;;;;4966210;28;20046;-74
2021/05/14 01:40:44;;;;;;;97.53;61.85;;;10.40;99.90;;;;;;4950330;28;20054;-74
2021/05/14 01:43:13;;;;;;;96.78;61.72;;;10.40;99.90;;;;;;4939984;28;20132;-74
2021/05/14 01:45:45;;;;;;;92.95;60.25;;;10.40;99.90;;;;;;4973146;28;20081;-74
2021/05/14 01:48:14;;;;;;;100.07;62.00;;;10.40;99.90;;;;;;4960598;28;20096;-74
2021/05/14 01:50:44;;;;;;;93.43;59.42;;;10.50;99.90;;;;;;4972484;28;20050;-74
2021/05/14 01:53:16;;;;;;;98.07;59.28;;;10.50;99.90;;;;;;4974824;28;20495;-74
2021/05/14 01:55:44;;;;;;;93.38;57.25;;;10.50;99.90;;;;;;4966932;28;20812;-74
2021/05/14 01:58:13;;;;;;;91.50;57.67;;;10.50;99.90;;;;;;4971213;28;20050;-73
2021/05/14 02:00:42;;;;;;;85.47;55.15;;;10.50;99.90;;;;;;4953140;28;20054;-73
2021/05/14 02:03:11;;;;;;;89.13;56.65;;;10.40;99.90;;;;;;4938835;28;20046;-74
2021/05/14 02:05:41;;;;;;;79.70;54.80;;;10.40;99.90;;;;;;4951805;28;20041;-74
2021/05/14 02:08:10;;;;;;;90.45;57.88;;;10.40;99.90;;;;;;4954595;28;20046;-73
2021/05/14 02:10:40;;;;;;;87.57;54.63;;;10.40;99.90;;;;;;4964968;28;20049;-74
2021/05/14 02:13:11;;;;;;;86.75;55.53;;;10.40;99.90;;;;;;4969737;28;20054;-74
2021/05/14 02:15:40;;;;;;;81.10;51.97;;;10.50;99.90;;;;;;4959444;28;20510;-73
2021/05/14 02:18:18;;;;;;;80.28;51.90;;;10.50;99.90;;;;;;4949233;28;20049;-74
2021/05/14 02:20:49;;;;;;;78.43;51.40;;;10.50;99.90;;;;;;4968028;28;20533;-72
2021/05/14 02:23:19;;;;;;;76.18;49.92;;;10.50;99.90;;;;;;4969603;28;20050;-74
2021/05/14 02:25:48;;;;;;;74.70;50.75;;;10.50;99.90;;;;;;4952203;28;20427;-73
2021/05/14 02:28:22;;;;;;;74.75;48.40;;;10.60;99.90;;;;;;4978703;28;20372;-73
2021/05/14 02:30:50;;;;;;;70.20;48.00;;;10.60;99.90;;;;;;4969126;28;20050;-74
2021/05/14 02:33:19;;;;;;;74.50;47.85;;;10.60;99.90;;;;;;4963034;28;20043;-75
2021/05/14 02:35:51;;;;;;;74.10;47.85;;;10.50;99.90;;;;;;4970658;28;20537;-74
2021/05/14 02:38:19;;;;;;;67.47;45.95;;;10.50;99.90;;;;;;4971365;28;20132;-73
2021/05/14 02:40:48;;;;;;;71.35;48.60;;;10.40;99.90;;;;;;4969779;28;20136;-74
2021/05/14 02:43:17;;;;;;;69.00;46.95;;;10.40;99.90;;;;;;4971445;28;20570;-75
2021/05/14 02:45:45;;;;;;;70.88;47.95;;;10.40;99.90;;;;;;4977494;28;20038;-73
2021/05/14 02:48:17;;;;;;;66.80;45.90;;;10.40;99.90;;;;;;4978083;28;20076;-73
2021/05/14 02:50:47;;;;;;;70.53;47.95;;;10.30;99.90;;;;;;4954467;28;20100;-73
2021/05/14 02:53:15;;;;;;;69.07;47.88;;;10.40;99.90;;;;;;4939772;28;20118;-73
2021/05/14 02:55:44;;;;;;;71.63;47.63;;;10.40;99.90;;;;;;4936059;28;20133;-74
2021/05/14 02:58:14;;;;;;;74.30;50.15;;;10.40;99.90;;;;;;4954868;28;20050;-74
2021/05/14 03:00:45;;;;;;;75.05;50.25;;;10.40;99.90;;;;;;4954929;28;20507;-74
2021/05/14 03:03:15;;;;;;;72.82;49.22;;;10.40;99.90;;;;;;4975267;28;20116;-75
2021/05/14 03:05:43;;;;;;;67.45;45.72;;;10.40;99.90;;;;;;4967563;28;20418;-74
2021/05/14 03:08:12;;;;;;;80.55;49.45;;;10.30;99.90;;;;;;4970114;28;20046;-74
2021/05/14 03:10:40;;;;;;;76.40;49.38;;;10.30;99.90;;;;;;4919929;28;20046;-74
2021/05/14 03:13:09;;;;;;;76.78;48.20;;;10.40;99.90;;;;;;4951702;28;20046;-74
2021/05/14 03:15:41;;;;;;;70.43;48.83;;;10.30;99.90;;;;;;4959457;28;20078;-74
2021/05/14 03:18:13;;;;;;;71.85;48.42;;;10.30;99.90;;;;;;4974482;28;20056;-74
2021/05/14 03:20:41;;;;;;;77.20;47.92;;;10.30;99.90;;;;;;4955023;28;20045;-74
2021/05/14 03:23:14;;;;;;;68.07;47.28;;;10.40;99.90;;;;;;4973746;28;20077;-75
2021/05/14 03:25:47;;;;;;;70.15;48.40;;;10.40;99.90;;;;;;4971676;28;20049;-75
2021/05/14 03:28:20;;;;;;;73.65;47.97;;;10.40;99.90;;;;;;4983058;28;20046;-74
2021/05/14 03:30:52;;;;;;;79.93;49.63;;;10.40;99.90;;;;;;4952965;28;20042;-75
2021/05/14 03:33:21;;;;;;;71.57;46.72;;;10.40;99.90;;;;;;4977643;28;20054;-74
2021/05/14 03:35:53;;;;;;;70.20;47.53;;;10.50;99.90;;;;;;4952034;28;20057;-74
2021/05/14 03:38:33;;;;;;;71.70;47.97;;;10.40;99.90;;;;;;4962715;28;20043;-73
2021/05/14 03:41:16;;;;;;;69.43;46.88;;;10.40;99.90;;;;;;4956878;28;20051;-75
2021/05/14 03:43:48;;;;;;;71.45;47.55;;;10.50;99.90;;;;;;4953011;28;20737;-74
2021/05/14 03:46:17;;;;;;;73.68;48.80;;;10.50;99.90;;;;;;4976454;28;20238;-73
2021/05/14 03:48:48;;;;;;;72.82;48.42;;;10.50;99.90;;;;;;4972971;28;20042;-74
2021/05/14 03:51:17;;;;;;;75.15;49.65;;;10.60;99.90;;;;;;4942221;28;20562;-74
2021/05/14 03:53:54;;;;;;;80.03;49.17;;;10.70;99.90;;;;;;4953677;28;20112;-74
2021/05/14 03:56:26;;;;;;;81.82;51.25;;;10.70;99.90;;;;;;4935733;28;20135;-74
2021/05/14 03:58:55;;;;;;;78.65;49.42;;;10.70;99.90;;;;;;4932550;28;20072;-74
2021/05/14 04:01:29;;;;;;;82.55;48.85;;;10.70;99.90;;;;;;4963199;28;20728;-73
2021/05/14 04:03:58;;;;;;;82.47;49.35;;;10.70;99.90;;;;;;4975275;28;20054;-74
2021/05/14 04:06:33;;;;;;;77.45;50.13;;;10.60;99.90;;;;;;4949114;28;20050;-74
2021/05/14 04:09:01;;;;;;;77.95;48.97;;;10.60;99.90;;;;;;4969315;28;20054;-74
2021/05/14 04:16:49;;;;;;;80.50;51.25;;;10.50;99.90;;;;;;4977980;28;20318;-74
2021/05/14 04:19:20;;;;;;;84.95;51.88;;;10.50;99.90;;;;;;4965849;28;20248;-75
2021/05/14 04:21:49;;;;;;;92.65;51.55;;;10.50;99.90;;;;;;4949118;28;20046;-74
2021/05/14 04:24:28;;;;;;;85.85;51.38;;;10.60;99.90;;;;;;4984358;28;20523;-75
2021/05/14 04:27:00;;;;;;;92.38;54.67;;;10.60;99.90;;;;;;4971070;28;20043;-74
2021/05/14 04:29:33;;;;;;;89.63;55.60;;;10.60;99.90;;;;;;4989430;28;20049;-73
2021/05/14 04:32:04;;;;;;;103.65;56.08;;;10.60;99.90;;;;;;4948763;28;20242;-74
2021/05/14 04:34:32;;;;;;;107.90;59.38;;;10.60;99.90;;;;;;4981037;28;20050;-74
2021/05/14 04:37:11;;;;;;;102.13;55.70;;;10.60;99.90;;;;;;4935288;28;20050;-75
2021/05/14 04:39:39;;;;;;;98.97;57.53;;;10.60;99.90;;;;;;4936696;28;20042;-73
2021/05/14 04:42:11;;;;;;;110.28;57.10;;;10.60;99.90;;;;;;4964911;28;20054;-75
2021/05/14 04:44:38;;;;;;;97.38;54.92;;;10.60;99.90;;;;;;4968641;28;20151;-73
2021/05/14 04:47:07;;;;;;;102.18;56.67;;;10.60;99.90;;;;;;4977393;28;20046;-75
2021/05/14 04:49:36;;;;;;;104.15;56.60;;;10.50;99.90;;;;;;4987742;28;20048;-73
2021/05/14 04:52:18;;;;;;;101.95;57.60;;;10.50;99.90;;;;;;4988713;28;20046;-73
2021/05/14 04:54:47;;;;;;;103.40;57.42;;;10.40;99.90;;;;;;4959874;28;20084;-74
2021/05/14 04:57:17;;;;;;;110.72;58.20;;;10.50;99.90;;;;;;4952218;28;20124;-74
2021/05/14 04:59:45;;;;;;;116.50;60.17;;;10.50;99.90;;;;;;4936768;28;20106;-74
2021/05/14 05:02:15;;;;;;;111.93;58.50;;;10.50;99.90;;;;;;4936168;28;20046;-73
2021/05/14 05:04:55;;;;;;;108.60;55.97;;;10.50;99.90;;;;;;4935616;28;20061;-73
2021/05/14 05:07:25;;;;;;;118.13;59.42;;;10.50;99.90;;;;;;4948517;28;20515;-73
2021/05/14 05:09:53;;;;;;;118.65;59.28;;;10.60;99.90;;;;;;4965277;28;20061;-73
2021/05/14 05:12:21;;;;;;;114.82;60.58;;;10.50;99.90;;;;;;4950667;28;20038;-75
2021/05/14 05:14:50;;;;;;;119.28;60.75;;;10.50;99.90;;;;;;4968024;28;20463;-73
2021/05/14 05:17:19;;;;;;;112.75;60.40;;;10.50;99.90;;;;;;4970498;28;20394;-73
2021/05/14 05:19:47;;;;;;;112.38;58.65;;;10.60;99.90;;;;;;4970186;28;20145;-74
2021/05/14 05:22:16;;;;;;;119.45;62.95;;;10.60;99.90;;;;;;4959664;28;20034;-74
2021/05/14 05:24:44;;;;;;;119.03;60.75;;;10.50;99.90;;;;;;4973885;28;20045;-74
2021/05/14 05:27:13;;;;;;;120.95;63.83;;;10.60;99.90;;;;;;4974942;28;20133;-72
2021/05/14 05:29:43;;;;;;;126.90;63.72;;;10.70;99.90;;;;;;4975783;28;20337;-74
2021/05/14 05:32:12;;;;;;;122.25;63.25;;;10.60;99.90;;;;;;4967387;28;20052;-74
2021/05/14 05:34:41;;;;;;;125.40;63.95;;;10.60;99.90;;;;;;4968244;28;20086;-73
2021/05/14 05:37:11;;;;;;;116.38;62.20;;;10.60;99.90;;;;;;4970491;28;20042;-73
2021/05/14 05:39:40;;;;;;;109.10;59.92;;;10.60;99.90;;;;;;4940553;28;20104;-73
2021/05/14 05:42:09;;;;;;;112.25;58.63;;;10.60;99.90;;;;;;4969899;28;20049;-74
2021/05/14 05:44:38;;;;;;;121.40;64.32;;;10.60;99.90;;;;;;4971255;28;20046;-73
2021/05/14 05:47:09;;;;;;;118.70;63.40;;;10.60;99.90;;;;;;4980472;28;20143;-74
2021/05/14 05:49:38;;;;;;;119.85;64.32;;;10.70;99.90;;;;;;4975202;28;20163;-73
2021/05/14 05:52:09;;;;;;;118.97;64.20;;;10.70;99.90;;;;;;4972453;28;20046;-73
2021/05/14 05:54:40;;;;;;;114.05;63.20;;;10.70;99.90;;;;;;4971257;28;20053;-73
2021/05/14 05:57:09;;;;;;;120.05;63.28;;;10.70;99.90;;;;;;4967903;28;20368;-73
2021/05/14 05:59:39;;;;;;;109.30;58.53;;;10.70;99.90;;;;;;4970918;28;20508;-73
2021/05/14 06:02:11;;;;;;;112.13;60.78;;;10.70;99.90;;;;;;4962695;28;20043;-72
2021/05/14 06:04:41;;;;;;;109.18;59.65;;;10.70;99.90;;;;;;4975039;28;20125;-73
2021/05/14 06:07:10;;;;;;;115.95;62.38;;;10.70;99.90;;;;;;4953340;28;20082;-72
2021/05/14 06:09:40;;;;;;;110.45;59.42;;;10.70;99.90;;;;;;4986247;28;20046;-73
2021/05/14 06:12:10;;;;;;;108.20;60.35;;;10.60;99.90;;;;;;4935784;28;20038;-73
2021/05/14 06:14:39;;;;;;;108.38;60.38;;;10.60;99.90;;;;;;4955381;28;20046;-73
2021/05/14 06:17:11;;;;;;;112.32;61.13;;;10.60;99.90;;;;;;4975851;28;20046;-74
2021/05/14 06:19:51;;;;;;;101.25;58.58;;;10.70;99.90;;;;;;4979512;28;20057;-74
2021/05/14 06:22:19;;;;;;;100.00;55.75;;;10.70;99.90;;;;;;4964690;28;20120;-74
2021/05/14 06:24:49;;;;;;;100.57;57.55;;;10.70;99.90;;;;;;4953121;28;20132;-73
2021/05/14 06:27:19;;;;;;;86.82;52.33;;;10.70;99.90;;;;;;4951539;28;20451;-74
2021/05/14 06:29:47;;;;;;;101.35;54.92;;;10.80;99.90;;;;;;4967718;28;20038;-74
2021/05/14 06:32:17;;;;;;;96.18;55.03;;;10.70;99.90;;;;;;4939957;28;20042;-73
2021/05/14 06:34:50;;;;;;;97.47;55.75;;;10.80;99.90;;;;;;4953018;28;20132;-73
2021/05/14 06:37:19;;;;;;;111.05;59.70;;;10.80;99.90;;;;;;4937580;28;20039;-72
2021/05/14 06:39:48;;;;;;;108.45;56.58;;;10.80;99.90;;;;;;4954163;28;20038;-72
2021/05/14 06:42:17;;;;;;;106.45;56.90;;;10.90;99.90;;;;;;4935322;28;20047;-72
2021/05/14 06:44:47;;;;;;;97.43;55.50;;;10.80;99.90;;;;;;4954206;28;20050;-73
2021/05/14 06:47:17;;;;;;;104.32;57.20;;;10.80;99.90;;;;;;4973085;28;20042;-74
2021/05/14 06:49:46;;;;;;;106.50;60.35;;;10.80;99.90;;;;;;4956005;28;20119;-74
2021/05/14 06:52:17;;;;;;;99.60;56.28;;;10.70;99.90;;;;;;4972581;28;20057;-74
2021/05/14 06:54:47;;;;;;;102.15;56.63;;;10.70;99.90;;;;;;4973738;28;20128;-72
2021/05/14 06:57:16;;;;;;;99.40;56.13;;;10.80;99.90;;;;;;4970721;28;20034;-72
2021/05/14 06:59:45;;;;;;;107.07;58.83;;;10.90;99.90;;;;;;4991162;28;20056;-73
2021/05/14 07:02:16;;;;;;;94.60;54.40;;;10.90;99.90;;;;;;4942290;28;20042;-74
2021/05/14 07:04:46;;;;;;;92.00;52.70;;;10.80;99.90;;;;;;4974383;28;20133;-74
2021/05/14 07:07:19;;;;;;;105.07;56.53;;;10.90;99.90;;;;;;4974179;28;20423;-74
2021/05/14 07:09:55;;;;;;;108.03;57.05;;;10.90;99.90;;;;;;4979712;28;20046;-75
2021/05/14 07:12:22;;;;;;;123.50;64.03;;;10.90;99.90;;;;;;4991013;28;20050;-73
2021/05/14 07:14:52;;;;;;;113.70;58.60;;;11.00;99.90;;;;;;4976125;28;20061;-73
2021/05/14 07:17:22;;;;;;;106.50;56.50;;;11.10;99.90;;;;;;4944273;28;20070;-73
2021/05/14 07:19:55;;;;;;;109.05;58.22;;;11.00;99.90;;;;;;4976347;28;20066;-74
2021/05/14 07:22:29;;;;;;;120.95;60.78;;;11.00;99.90;;;;;;4957228;28;20049;-75
2021/05/14 07:24:58;;;;;;;127.25;62.58;;;10.90;99.90;;;;;;4947658;28;20058;-74
2021/05/14 07:27:30;;;;;;;130.88;60.35;;;10.90;99.90;;;;;;4976837;28;20050;-75
2021/05/14 07:30:01;;;;;;;137.93;62.63;;;10.90;99.90;;;;;;4980229;28;20065;-75
2021/05/14 07:32:31;;;;;;;147.73;65.78;;;10.80;99.90;;;;;;4955981;28;20046;-76
2021/05/14 07:35:06;;;;;;;174.05;69.70;;;10.80;99.90;;;;;;4968882;28;20077;-73
2021/05/14 07:37:38;;;;;;;155.52;68.25;;;10.80;99.90;;;;;;4939474;28;20043;-74
2021/05/14 07:40:16;;;;;;;175.27;71.78;;;10.60;99.90;;;;;;4970425;28;20046;-76
2021/05/14 07:42:48;;;;;;;169.70;70.63;;;10.50;99.90;;;;;;4969959;28;20458;-73
2021/05/14 07:45:20;;;;;;;139.27;64.60;;;10.50;99.90;;;;;;4974812;28;20061;-73
2021/05/14 07:48:19;;;;;;;137.70;64.15;;;10.50;99.90;;;;;;4948639;28;20046;-74
2021/05/14 07:50:55;;;;;;;119.90;59.03;;;10.40;99.90;;;;;;4968409;28;20597;-74
2021/05/14 07:53:25;;;;;;;107.85;54.80;;;10.30;99.90;;;;;;4941537;28;20054;-73
2021/05/14 07:55:55;;;;;;;122.90;60.10;;;10.30;99.90;;;;;;4958114;28;20038;-74
2021/05/14 07:58:26;;;;;;;91.72;50.05;;;10.30;99.90;;;;;;4951951;28;20130;-74
2021/05/14 08:00:58;;;;;;;106.88;52.88;;;10.40;99.90;;;;;;4961033;28;20515;-74
2021/05/14 08:03:30;;;;;;;93.93;46.50;;;10.50;99.90;;;;;;4984550;28;20478;-72
2021/05/14 08:06:04;;;;;;;103.80;54.03;;;10.50;99.90;;;;;;4989224;28;20046;-73
2021/05/14 08:08:42;;;;;;;98.85;50.35;;;10.60;99.90;;;;;;4956491;28;20051;-73
2021/05/14 08:11:15;;;;;;;97.07;48.70;;;10.60;99.90;;;;;;4953233;28;20541;-73
2021/05/14 08:13:45;;;;;;;72.88;42.20;;;10.70;99.90;;;;;;4938559;28;20068;-73
2021/05/14 08:16:15;;;;;;;84.20;46.35;;;10.70;99.90;;;;;;4957307;28;20405;-73
2021/05/14 08:18:43;;;;;;;83.30;44.60;;;10.80;99.90;;;;;;4955673;28;20046;-73
2021/05/14 08:21:23;;;;;;;87.00;45.10;;;10.70;99.90;;;;;;4970029;28;20046;-74
2021/05/14 08:23:56;;;;;;;78.40;45.08;;;10.70;99.90;;;;;;4956663;28;20420;-73
2021/05/14 08:26:24;;;;;;;85.35;48.05;;;10.70;99.90;;;;;;4953636;28;20112;-72
2021/05/14 08:28:56;;;;;;;61.67;36.10;;;10.70;99.90;;;;;;4941472;28;20074;-73
2021/05/14 08:31:27;;;;;;;52.30;32.28;;;10.60;99.90;;;;;;4954459;28;20043;-75
2021/05/14 08:33:55;;;;;;;43.70;28.25;;;10.40;99.90;;;;;;4941729;28;20050;-74
2021/05/14 08:36:24;;;;;;;42.10;24.98;;;10.30;99.90;;;;;;4954031;28;20107;-72
2021/05/14 08:38:54;;;;;;;41.67;26.33;;;10.10;99.90;;;;;;4970003;28;20081;-73
2021/05/14 08:41:27;;;;;;;49.10;29.85;;;10.20;99.90;;;;;;4975329;28;20061;-72
2021/05/14 08:44:01;;;;;;;60.90;35.53;;;10.30;99.90;;;;;;4961263;28;20112;-73
2021/05/14 08:46:31;;;;;;;66.45;39.92;;;10.60;99.90;;;;;;4978166;28;20042;-73
2021/05/14 08:49:14;;;;;;;75.53;43.35;;;10.90;99.90;;;;;;4977861;28;20523;-73
2021/05/14 08:51:46;;;;;;;68.30;41.63;;;11.10;99.90;;;;;;4949283;28;20051;-74
2021/05/14 08:54:22;;;;;;;80.35;46.40;;;11.20;99.90;;;;;;4961287;28;20050;-75
2021/05/14 08:57:01;;;;;;;77.28;46.35;;;11.20;99.90;;;;;;4994480;28;20042;-73
2021/05/14 08:59:30;;;;;;;83.70;48.20;;;11.10;99.90;;;;;;4979156;28;20300;-72
2021/05/14 09:01:59;;;;;;;91.55;54.35;;;11.00;99.90;;;;;;4971234;28;20042;-73
2021/05/14 09:04:33;;;;;;;85.00;50.17;;;11.20;99.90;;;;;;4963574;28;20038;-73
2021/05/14 09:07:18;;;;;;;96.57;54.80;;;11.30;99.90;;;;;;4978163;28;20054;-73
2021/05/14 09:10:07;;;;;;;94.15;54.38;;;11.40;99.90;;;;;;4964880;28;20112;-72
2021/05/14 09:12:37;;;;;;;93.72;54.38;;;11.50;99.90;;;;;;4959277;28;20043;-73
2021/05/14 09:15:25;;;;;;;93.95;54.63;;;11.70;99.90;;;;;;4962793;28;20105;-72
2021/05/14 09:18:06;;;;;;;97.43;57.05;;;11.70;99.90;;;;;;4964399;28;20110;-73
2021/05/14 09:20:46;;;;;;;95.70;57.65;;;11.70;99.90;;;;;;4974753;28;20042;-73
2021/05/14 09:23:21;;;;;;;84.15;51.80;;;11.70;99.90;;;;;;4979637;28;20514;-73
2021/05/14 09:25:50;;;;;;;89.03;55.53;;;11.80;99.90;;;;;;4959498;28;20038;-73
2021/05/14 09:28:26;;;;;;;87.72;54.85;;;11.80;99.90;;;;;;4962274;28;20070;-73
2021/05/14 09:31:22;;;;;;;87.97;52.67;;;11.90;99.90;;;;;;4957203;28;20296;-74
2021/05/14 09:34:02;;;;;;;74.30;49.30;;;12.00;99.90;;;;;;4987221;28;20038;-73
2021/05/14 09:36:32;;;;;;;79.20;49.85;;;11.90;99.90;;;;;;4974297;28;20164;-74
2021/05/14 09:39:05;;;;;;;79.65;51.30;;;12.00;99.90;;;;;;4944531;28;20646;-73
2021/05/14 09:41:35;;;;;;;91.32;55.28;;;12.00;99.90;;;;;;4945055;28;20058;-74
2021/05/14 09:44:19;;;;;;;83.78;52.38;;;12.00;99.90;;;;;;4960726;28;20048;-73
2021/05/14 09:46:58;;;;;;;84.85;54.20;;;12.00;99.90;;;;;;4973527;28;20048;-73
2021/05/14 09:49:28;;;;;;;84.63;54.53;;;12.10;99.90;;;;;;4974730;28;20077;-73
2021/05/14 09:52:05;;;;;;;88.60;54.60;;;12.00;99.90;;;;;;4959237;28;20065;-72
2021/05/14 09:54:41;;;;;;;72.85;50.03;;;12.30;99.90;;;;;;4974631;28;20054;-72
2021/05/14 10:00:05;;;;;;;76.85;52.33;;;13.10;99.90;;;;;;4981740;28;20061;-72
2021/05/14 10:02:40;;;;;;;70.35;47.97;;;13.40;99.90;;;;;;4937949;28;20046;-70
2021/05/14 10:05:12;;;;;;;69.32;48.50;;;13.80;99.90;;;;;;4953806;28;20042;-71
2021/05/14 10:07:45;;;;;;;67.40;49.35;;;14.00;99.90;;;;;;4989142;28;20054;-70
2021/05/14 10:10:19;;;;;;;62.05;45.05;;;14.00;99.90;;;;;;4967668;28;20046;-70
2021/05/14 10:12:52;;;;;;;57.70;43.03;;;14.10;99.90;;;;;;4968496;28;20097;-71
2021/05/14 10:15:21;;;;;;;64.22;47.03;;;13.90;99.90;;;;;;4953646;28;20050;-72
2021/05/14 10:17:51;;;;;;;68.32;48.70;;;13.80;99.90;;;;;;4970836;28;20101;-72
2021/05/14 10:20:26;;;;;;;52.47;38.85;;;13.70;99.90;;;;;;4936657;28;20109;-71
2021/05/14 10:22:57;;;;;;;62.88;45.58;;;13.50;99.90;;;;;;4979631;28;20113;-70
2021/05/14 10:25:34;;;;;;;58.40;42.40;;;13.20;99.90;;;;;;4964590;28;20121;-70
2021/05/14 10:28:13;;;;;;;58.47;41.63;;;13.10;99.90;;;;;;4983586;28;20525;-71
2021/05/14 10:30:58;;;;;;;55.90;41.90;;;13.10;99.90;;;;;;4982427;28;20442;-70
2021/05/14 10:33:43;;;;;;;66.95;45.92;;;13.10;99.90;;;;;;4981795;28;20056;-70
2021/05/14 10:36:38;;;;;;;61.80;44.42;;;13.30;99.90;;;;;;4949866;28;20058;-69
2021/05/14 10:39:10;;;;;;;55.45;38.85;;;13.40;99.90;;;;;;4969980;28;20081;-70
2021/05/14 10:42:08;;;;;;;58.25;42.35;;;13.80;99.90;;;;;;4938693;28;20046;-70
2021/05/14 10:44:48;;;;;;;55.05;39.97;;;13.70;99.90;;;;;;4954417;28;20075;-69
2021/05/14 10:47:25;;;;;;;51.55;40.08;;;13.90;99.90;;;;;;4983446;28;20274;-70
2021/05/14 10:50:02;;;;;;;47.22;36.95;;;13.90;99.90;;;;;;4969482;28;20049;-70
2021/05/14 10:52:34;;;;;;;48.65;39.22;;;14.20;99.90;;;;;;4950777;28;20566;-71
2021/05/14 10:55:02;;;;;;;43.33;35.28;;;14.50;99.90;;;;;;4938877;28;20323;-71
2021/05/14 10:57:48;;;;;;;51.28;39.65;;;14.10;99.90;;;;;;4936399;28;20427;-71
2021/05/14 11:00:24;;;;;;;49.72;37.42;;;13.90;99.90;;;;;;4965275;28;20047;-71
2021/05/14 11:03:31;;;;;;;43.38;35.70;;;13.90;99.90;;;;;;4952002;28;20092;-71
2021/05/14 11:06:19;;;;;;;47.10;37.70;;;14.10;99.90;;;;;;4967241;28;20050;-69
2021/05/14 11:09:06;;;;;;;45.35;35.63;;;14.30;99.90;;;;;;4954030;28;20058;-70
2021/05/14 11:12:06;;;;;;;45.90;36.25;;;14.10;99.90;;;;;;4940494;28;20053;-69
2021/05/14 11:14:46;;;;;;;49.00;36.75;;;14.50;99.90;;;;;;4968742;28;20119;-70
2021/05/14 11:17:16;;;;;;;44.17;36.17;;;14.80;99.90;;;;;;4973410;28;20042;-70
2021/05/14 11:19:53;;;;;;;41.65;33.95;;;15.10;99.90;;;;;;4949994;28;20088;-70
2021/05/14 11:22:38;;;;;;;41.85;33.28;;;15.30;99.90;;;;;;4983418;28;20047;-69
2021/05/14 11:25:17;;;;;;;43.20;34.03;;;15.30;99.90;;;;;;4967084;28;20136;-70
2021/05/14 11:27:50;;;;;;;43.08;35.03;;;15.20;99.90;;;;;;4953154;28;20610;-70
2021/05/14 11:30:19;;;;;;;40.65;33.85;;;15.30;99.90;;;;;;4939447;28;20077;-70
2021/05/14 11:32:49;;;;;;;41.75;36.05;;;15.50;99.90;;;;;;4947820;28;20050;-69
2021/05/14 11:35:21;;;;;;;40.42;34.15;;;15.40;99.90;;;;;;4966454;28;20054;-71
2021/05/14 11:37:56;;;;;;;40.80;35.25;;;15.80;99.90;;;;;;4970261;28;20043;-69
2021/05/14 11:40:35;;;;;;;38.78;33.47;;;16.10;99.90;;;;;;4954305;28;20038;-70
2021/05/14 11:43:12;;;;;;;;;;;16.40;99.90;;;;;;4978285;28;20170;-71
2021/05/14 11:45:43;;;;;;;36.58;32.10;;;16.30;99.90;;;;;;4984437;28;19955;-71
2021/05/14 11:48:18;;;;;;;41.97;34.17;;;16.30;99.90;;;;;;4954494;28;20049;-71
2021/05/14 11:50:48;;;;;;;36.20;32.30;;;16.20;99.90;;;;;;4966274;28;20608;-70
2021/05/14 11:53:17;;;;;;;36.72;32.78;;;16.30;99.90;;;;;;4952148;28;20054;-72
2021/05/14 11:55:50;;;;;;;35.03;31.50;;;16.50;99.90;;;;;;4984964;28;20057;-70
2021/05/14 11:58:24;;;;;;;37.90;34.05;;;16.70;99.90;;;;;;4937659;28;20301;-69
2021/05/14 12:00:53;;;;;;;40.72;36.33;;;16.50;99.90;;;;;;4984075;28;20043;-70
2021/05/14 12:03:26;;;;;;;37.95;34.15;;;16.40;99.90;;;;;;4964376;28;20062;-71
2021/05/14 12:06:06;;;;;;;37.50;33.42;;;16.30;99.90;;;;;;4966031;28;20048;-70
2021/05/14 12:08:34;;;;;;;38.78;34.72;;;16.30;99.90;;;;;;4951370;28;20124;-72
2021/05/14 12:11:11;;;;;;;36.55;33.00;;;16.30;99.90;;;;;;4933839;28;20070;-70
2021/05/14 12:13:44;;;;;;;36.40;32.95;;;16.60;99.90;;;;;;4936395;28;20056;-71
2021/05/14 12:16:14;;;;;;;35.80;32.50;;;17.10;99.90;;;;;;4966982;28;20073;-70
2021/05/14 12:18:56;;;;;;;37.20;33.50;;;17.20;99.90;;;;;;4984474;28;20266;-70
2021/05/14 12:21:27;;;;;;;35.42;32.03;;;17.50;99.90;;;;;;4986166;28;20046;-70
2021/05/14 12:23:56;;;;;;;37.38;33.85;;;17.60;99.90;;;;;;4954691;28;20130;-70
2021/05/14 12:26:29;;;;;;;34.67;31.38;;;17.40;99.90;;;;;;4967135;28;20046;-71
2021/05/14 12:28:58;;;;;;;38.35;34.53;;;17.10;99.90;;;;;;4963027;28;20045;-72
2021/05/14 12:31:27;;;;;;;36.58;33.00;;;16.90;99.90;;;;;;4937950;28;20050;-70
2021/05/14 12:33:56;;;;;;;38.88;35.00;;;17.20;99.90;;;;;;4936438;28;20042;-71
2021/05/14 12:36:43;;;;;;;36.60;32.70;;;17.40;99.90;;;;;;4947287;28;20128;-69
2021/05/14 12:39:15;;;;;;;35.25;31.65;;;17.20;99.90;;;;;;4951821;28;20191;-72
2021/05/14 12:41:57;;;;;;;37.58;33.92;;;17.00;99.90;;;;;;4933525;28;20039;-71
2021/05/14 12:44:31;;;;;;;37.45;33.95;;;16.50;99.90;;;;;;4968182;28;20039;-70
2021/05/14 12:47:18;;;;;;;37.47;33.80;;;16.70;99.90;;;;;;4965474;28;20125;-70
2021/05/14 12:49:53;;;;;;;39.20;35.42;;;16.80;99.90;;;;;;4936968;28;20141;-69
2021/05/14 12:52:26;;;;;;;36.65;33.03;;;17.00;99.90;;;;;;4967722;28;20070;-68
2021/05/14 12:54:58;;;;;;;38.38;34.85;;;17.10;99.90;;;;;;4982453;28;20054;-70
2021/05/14 12:57:38;;;;;;;39.38;35.80;;;17.10;99.90;;;;;;4940711;28;20077;-69
2021/05/14 13:00:17;;;;;;;34.97;31.85;;;16.90;99.90;;;;;;4973846;28;20066;-71
2021/05/14 13:02:57;;;;;;;36.13;32.72;;;17.20;99.90;;;;;;4950161;28;20066;-69